createdAt,value
2023-05-07T08:51:53.506Z,52.50
2023-05-07T08:54:24.864Z,49.10
2023-05-07T08:56:54.633Z,45.20
2023-05-07T08:59:22.522Z,42.20
2023-05-07T09:01:50.552Z,41.00
2023-05-07T09:04:18.411Z,40.90
2023-05-07T09:06:46.285Z,40.40
2023-05-07T09:09:19.363Z,39.10
2023-05-07T09:11:47.214Z,38.30
2023-05-07T09:14:15.118Z,38.20
2023-05-07T09:16:43.941Z,39.30
2023-05-07T09:19:11.674Z,40.50
2023-05-07T09:21:39.385Z,43.10
2023-05-07T09:24:07.969Z,44.60
2023-05-07T09:26:37.099Z,47.40
2023-05-07T09:29:05.056Z,48.20
2023-05-07T09:31:32.893Z,48.90
2023-05-07T09:34:01.678Z,49.90
2023-05-07T09:36:30.268Z,49.60
2023-05-07T09:39:01.169Z,49.80
2023-05-07T09:41:28.970Z,50.20
2023-05-07T09:43:58.742Z,49.90
2023-05-07T09:46:30.955Z,48.40
2023-05-07T09:48:59.875Z,48.20
2023-05-07T09:51:32.174Z,48.60
2023-05-07T09:54:01.870Z,48.60
2023-05-07T09:56:31.165Z,48.20
2023-05-07T09:59:02.170Z,47.60
2023-05-07T10:01:32.778Z,47.00
2023-05-07T10:04:01.623Z,47.30
2023-05-07T10:06:31.215Z,47.50
2023-05-07T10:09:00.509Z,47.50
2023-05-07T10:11:28.584Z,47.50
2023-05-07T10:13:56.734Z,46.40
2023-05-07T10:16:26.865Z,45.10
2023-05-07T10:18:56.190Z,44.40
2023-05-07T10:21:25.806Z,43.80
2023-05-07T10:23:59.753Z,43.20
2023-05-07T10:26:30.737Z,42.60
2023-05-07T10:29:04.077Z,42.00
2023-05-07T10:31:45.699Z,41.10
2023-05-07T10:34:18.097Z,41.70
2023-05-07T10:36:46.463Z,41.60
2023-05-07T10:39:15.078Z,41.60
2023-05-07T10:41:42.801Z,41.20
2023-05-07T10:44:10.726Z,41.50
2023-05-07T10:46:40.409Z,41.70
2023-05-07T10:49:09.272Z,40.60
2023-05-07T10:51:37.449Z,40.30
2023-05-07T10:54:23.426Z,39.90
2023-05-07T10:56:52.009Z,39.20
2023-05-07T10:59:44.173Z,39.50
2023-05-07T11:02:15.120Z,40.00
2023-05-07T11:04:43.198Z,40.10
2023-05-07T11:07:30.157Z,39.20
2023-05-07T11:10:04.853Z,38.70
2023-05-07T11:12:54.439Z,38.30
2023-05-07T11:15:39.909Z,38.40
2023-05-07T11:18:09.619Z,38.60
2023-05-07T11:20:55.007Z,38.50
2023-05-07T11:24:00.637Z,38.60
2023-05-07T11:26:30.172Z,38.30
2023-05-07T11:28:58.232Z,38.30
2023-05-07T11:31:29.583Z,37.70
2023-05-07T11:33:59.555Z,38.90
2023-05-07T11:36:28.460Z,38.70
2023-05-07T11:38:56.958Z,39.10
2023-05-07T11:41:24.672Z,38.20
2023-05-07T11:44:00.504Z,38.30
2023-05-07T11:46:29.705Z,38.20
2023-05-07T11:48:59.111Z,38.30
2023-05-07T11:51:28.016Z,37.00
2023-05-07T11:53:55.945Z,34.70
2023-05-07T11:56:23.783Z,34.00
2023-05-07T11:58:52.952Z,33.20
2023-05-07T12:01:20.670Z,34.00
2023-05-07T12:03:48.790Z,33.90
2023-05-07T12:06:19.049Z,33.80
2023-05-07T12:08:48.461Z,34.20
2023-05-07T12:11:19.445Z,33.50
2023-05-07T12:13:47.177Z,32.80
2023-05-07T12:16:15.886Z,33.20
2023-05-07T12:18:44.377Z,34.00
2023-05-07T12:21:12.832Z,33.50
2023-05-07T12:23:42.187Z,34.10
2023-05-07T12:26:11.221Z,34.40
2023-05-07T12:28:40.607Z,34.30
2023-05-07T12:31:09.106Z,36.10
2023-05-07T12:33:37.788Z,36.60
2023-05-07T12:36:08.264Z,36.30
2023-05-07T12:38:41.642Z,36.40
2023-05-07T12:41:11.651Z,35.80
2023-05-07T12:43:39.698Z,35.50
2023-05-07T12:46:08.739Z,35.00
2023-05-07T12:48:39.527Z,35.80
2023-05-07T12:51:08.520Z,35.10
2023-05-07T12:53:44.179Z,35.60
2023-05-07T12:56:12.107Z,35.20
2023-05-07T12:58:39.835Z,35.50
2023-05-07T13:01:10.683Z,35.90
2023-05-07T13:03:40.070Z,36.10
2023-05-07T13:06:10.515Z,38.10
2023-05-07T13:08:41.207Z,38.80
2023-05-07T13:11:11.908Z,39.50
2023-05-07T13:13:40.947Z,40.40
2023-05-07T13:16:11.091Z,41.10
2023-05-07T13:18:41.245Z,41.80
2023-05-07T13:21:09.336Z,41.40
2023-05-07T13:23:39.330Z,42.00
2023-05-07T13:26:18.468Z,43.80
2023-05-07T13:28:54.622Z,45.20
2023-05-07T13:31:22.486Z,47.10
2023-05-07T13:33:50.469Z,48.50
2023-05-07T13:36:18.273Z,49.80
2023-05-07T13:38:46.061Z,50.30
2023-05-07T13:41:14.097Z,52.20
2023-05-07T13:43:41.900Z,56.10
2023-05-07T13:46:11.095Z,63.40
2023-05-07T13:48:38.969Z,63.50
2023-05-07T13:51:06.768Z,61.70
2023-05-07T13:53:34.552Z,67.80
2023-05-07T13:56:02.360Z,74.80
2023-05-07T13:58:30.215Z,89.40
2023-05-07T14:00:57.945Z,99.90
2023-05-07T14:03:27.202Z,99.90
2023-05-07T14:05:55.073Z,99.90
2023-05-07T14:08:22.910Z,99.90
2023-05-07T14:10:50.639Z,99.90
2023-05-07T14:13:18.451Z,99.90
2023-05-07T14:15:47.702Z,99.90
2023-05-07T14:18:15.625Z,99.90
2023-05-07T14:20:47.271Z,99.90
2023-05-07T14:23:15.081Z,99.90
2023-05-07T14:25:44.384Z,99.90
2023-05-07T14:28:12.066Z,99.90
2023-05-07T14:30:39.833Z,99.90
2023-05-07T14:33:07.716Z,99.90
2023-05-07T14:35:36.289Z,99.90
2023-05-07T14:38:05.391Z,99.90
2023-05-07T14:40:33.113Z,99.90
2023-05-07T14:43:01.067Z,99.90
2023-05-07T14:45:28.753Z,99.90
2023-05-07T14:47:56.609Z,99.90
2023-05-07T14:50:24.508Z,99.90
2023-05-07T14:52:52.210Z,99.90
2023-05-07T14:55:21.293Z,99.90
2023-05-07T14:57:49.306Z,99.90
2023-05-07T15:00:17.326Z,99.90
2023-05-07T15:02:45.401Z,99.90
2023-05-07T15:05:13.843Z,99.90
2023-05-07T15:07:41.821Z,99.90
2023-05-07T15:10:10.367Z,99.90
2023-05-07T15:12:39.424Z,99.90
2023-05-07T15:15:08.522Z,99.90
2023-05-07T15:17:36.360Z,99.90
2023-05-07T15:20:05.782Z,99.90
2023-05-07T15:22:33.556Z,99.90
2023-05-07T15:25:01.232Z,99.90
2023-05-07T15:27:29.079Z,99.90
2023-05-07T15:29:58.147Z,99.90
2023-05-07T15:32:26.156Z,99.90
2023-05-07T15:34:53.941Z,99.90
2023-05-07T15:37:21.763Z,99.90
2023-05-07T15:39:49.454Z,99.90
2023-05-07T15:42:17.284Z,99.90
2023-05-07T15:44:45.728Z,99.90
2023-05-07T15:47:15.404Z,99.90
2023-05-07T15:49:43.379Z,99.90
2023-05-07T15:52:12.043Z,99.90
2023-05-07T15:54:39.732Z,99.90
2023-05-07T15:57:07.978Z,99.90
2023-05-07T15:59:36.186Z,99.90
2023-05-07T16:02:04.031Z,99.90
2023-05-07T16:04:33.233Z,99.90
2023-05-07T16:07:00.908Z,99.90
2023-05-07T16:09:29.275Z,99.90
2023-05-07T16:11:57.113Z,99.90
2023-05-07T16:14:24.947Z,99.90
2023-05-07T16:16:54.562Z,99.90
2023-05-07T16:19:23.945Z,99.90
2023-05-07T16:21:53.003Z,99.90
2023-05-07T16:24:20.753Z,99.90
2023-05-07T16:26:48.513Z,99.90
2023-05-07T16:29:16.672Z,99.90
2023-05-07T16:31:44.552Z,99.90
2023-05-07T16:34:12.337Z,99.90
2023-05-07T16:36:40.247Z,99.90
2023-05-07T16:39:09.440Z,99.90
2023-05-07T16:41:37.186Z,99.90
2023-05-07T16:44:05.466Z,99.90
2023-05-07T16:46:33.229Z,99.90
2023-05-07T16:49:00.987Z,99.90
2023-05-07T16:51:29.284Z,99.90
2023-05-07T16:53:57.058Z,99.90
2023-05-07T16:56:26.138Z,99.90
2023-05-07T16:58:53.930Z,99.90
2023-05-07T17:01:21.692Z,99.90
2023-05-07T17:03:49.580Z,99.90
2023-05-07T17:06:17.616Z,99.90
2023-05-07T17:08:45.410Z,99.90
2023-05-07T17:11:13.135Z,99.90
2023-05-07T17:13:42.149Z,99.90
2023-05-07T17:16:09.985Z,99.90
2023-05-07T17:18:37.764Z,99.90
2023-05-07T17:21:05.668Z,99.90
2023-05-07T17:23:33.338Z,99.90
2023-05-07T17:26:01.030Z,99.90
2023-05-07T17:28:28.806Z,99.90
2023-05-07T17:30:57.950Z,99.90
2023-05-07T17:33:25.751Z,99.90
2023-05-07T17:35:54.642Z,99.90
2023-05-07T17:38:22.421Z,99.90
2023-05-07T17:40:50.312Z,99.90
2023-05-07T17:43:18.106Z,99.90
2023-05-07T17:45:46.650Z,99.90
2023-05-07T17:48:15.945Z,99.90
2023-05-07T17:50:44.358Z,99.90
2023-05-07T17:53:12.406Z,99.90
2023-05-07T17:55:43.574Z,99.90
2023-05-07T17:58:11.626Z,99.90
2023-05-07T18:00:39.754Z,99.90
2023-05-07T18:03:07.693Z,99.90
2023-05-07T18:05:39.344Z,99.90
2023-05-07T18:08:07.567Z,99.90
2023-05-07T18:10:35.383Z,99.90
2023-05-07T18:13:03.284Z,99.90
2023-05-07T18:15:31.143Z,99.90
2023-05-07T18:17:58.925Z,99.90
2023-05-07T18:20:26.778Z,99.90
2023-05-07T18:22:55.851Z,99.90
2023-05-07T18:25:23.769Z,99.90
2023-05-07T18:27:51.549Z,99.90
2023-05-07T18:30:19.416Z,99.90
2023-05-07T18:32:47.263Z,99.90
2023-05-07T18:35:16.775Z,99.90
2023-05-07T18:37:44.516Z,99.90
2023-05-07T18:40:14.654Z,99.90
2023-05-07T18:42:42.659Z,99.90
2023-05-07T18:45:11.325Z,99.90
2023-05-07T18:47:39.065Z,99.90
2023-05-07T18:50:08.392Z,99.90
2023-05-07T18:52:37.151Z,99.90
2023-05-07T18:55:05.611Z,99.90
2023-05-07T18:57:34.780Z,99.90
2023-05-07T19:00:02.602Z,99.90
2023-05-07T19:02:30.498Z,99.90
2023-05-07T19:04:58.369Z,99.90
2023-05-07T19:07:26.240Z,99.90
2023-05-07T19:10:04.232Z,99.90
2023-05-07T19:12:34.941Z,99.90
2023-05-07T19:15:02.751Z,99.90
2023-05-07T19:17:30.582Z,99.90
2023-05-07T19:19:58.583Z,99.90
2023-05-07T19:22:26.369Z,99.90
2023-05-07T19:24:54.374Z,99.90
2023-05-07T19:27:22.207Z,99.90
2023-05-07T19:29:51.463Z,99.90
2023-05-07T19:32:21.219Z,99.90
2023-05-07T19:34:49.424Z,99.90
2023-05-07T19:37:17.330Z,99.90
2023-05-07T19:39:45.214Z,99.90
2023-05-07T19:42:13.995Z,99.90
2023-05-07T19:44:41.734Z,99.90
2023-05-07T19:47:12.005Z,99.90
2023-05-07T19:49:39.749Z,99.90
2023-05-07T19:52:07.527Z,99.90
2023-05-07T19:54:35.267Z,99.90
2023-05-07T19:57:03.132Z,99.90
2023-05-07T19:59:30.963Z,99.90
2023-05-07T20:01:58.758Z,99.90
2023-05-07T20:04:32.824Z,99.90
2023-05-07T20:07:00.877Z,99.90
2023-05-07T20:09:28.679Z,99.90
2023-05-07T20:11:56.573Z,99.90
2023-05-07T20:14:24.445Z,99.90
2023-05-07T20:16:52.220Z,99.90
2023-05-07T20:19:20.511Z,99.90
2023-05-07T20:21:49.610Z,99.90
2023-05-07T20:24:19.115Z,99.90
2023-05-07T20:26:46.949Z,99.90
2023-05-07T20:29:14.747Z,99.90
2023-05-07T20:31:43.750Z,99.90
2023-05-07T20:34:11.510Z,99.90
2023-05-07T20:36:39.462Z,99.90
2023-05-07T20:39:09.005Z,99.90
2023-05-07T20:41:36.813Z,99.90
2023-05-07T20:44:04.777Z,99.90
2023-05-07T20:46:32.670Z,99.90
2023-05-07T20:49:00.946Z,99.90
2023-05-07T20:51:28.953Z,99.90
2023-05-07T20:53:56.802Z,99.90
2023-05-07T20:56:26.609Z,99.90
2023-05-07T20:58:54.354Z,99.90
2023-05-07T21:01:22.184Z,99.90
2023-05-07T21:03:53.724Z,99.90
2023-05-07T21:06:21.597Z,99.90
2023-05-07T21:08:49.372Z,99.90
2023-05-07T21:11:17.868Z,99.90
2023-05-07T21:13:46.999Z,99.90
2023-05-07T21:16:15.361Z,99.90
2023-05-07T21:18:43.119Z,99.90
2023-05-07T21:21:11.432Z,99.90
2023-05-07T21:23:39.234Z,99.90
2023-05-07T21:26:07.094Z,99.90
2023-05-07T21:28:35.011Z,99.90
2023-05-07T21:31:04.136Z,99.90
2023-05-07T21:33:31.989Z,99.90
2023-05-07T21:35:59.741Z,99.90
2023-05-07T21:38:27.481Z,99.90
2023-05-07T21:40:55.421Z,99.90
2023-05-07T21:43:23.220Z,99.90
2023-05-07T21:45:51.228Z,99.90
2023-05-07T21:48:22.089Z,99.90
2023-05-07T21:50:50.061Z,99.90
2023-05-07T21:53:17.797Z,99.90
2023-05-07T21:55:45.547Z,99.90
2023-05-07T21:58:13.329Z,99.90
2023-05-07T22:00:41.137Z,99.90
2023-05-07T22:03:08.908Z,99.90
2023-05-07T22:05:38.092Z,99.90
2023-05-07T22:08:06.161Z,99.90
2023-05-07T22:10:34.030Z,99.90
2023-05-07T22:13:01.828Z,99.90
2023-05-07T22:15:29.672Z,99.90
2023-05-07T22:17:57.440Z,99.90
2023-05-07T22:20:25.634Z,99.90
2023-05-07T22:22:55.977Z,99.90
2023-05-07T22:25:24.784Z,99.90
2023-05-07T22:27:53.352Z,99.90
2023-05-07T22:30:21.080Z,99.90
2023-05-07T22:32:48.838Z,99.90
2023-05-07T22:35:16.791Z,99.90
2023-05-07T22:37:44.635Z,99.90
2023-05-07T22:40:14.463Z,99.90
2023-05-07T22:42:42.380Z,99.90
2023-05-07T22:45:11.219Z,99.90
2023-05-07T22:47:38.966Z,99.90
2023-05-07T22:50:07.767Z,99.90
2023-05-07T22:52:35.825Z,99.90
2023-05-07T22:55:03.723Z,99.90
2023-05-07T22:57:32.797Z,99.90
2023-05-07T23:00:00.867Z,99.90
2023-05-07T23:02:29.104Z,99.90
2023-05-07T23:04:59.675Z,99.90
2023-05-07T23:07:27.455Z,99.90
2023-05-07T23:09:55.215Z,99.90
2023-05-07T23:12:23.010Z,99.90
2023-05-07T23:14:52.163Z,99.90
2023-05-07T23:17:19.912Z,99.90
2023-05-07T23:19:47.764Z,99.90
2023-05-07T23:22:15.882Z,99.90
2023-05-07T23:24:43.725Z,99.90
2023-05-07T23:27:11.504Z,99.90
2023-05-07T23:29:39.218Z,99.90
2023-05-07T23:32:08.360Z,99.90
2023-05-07T23:34:36.085Z,99.90
2023-05-07T23:37:03.884Z,99.90
2023-05-07T23:39:31.613Z,99.90
2023-05-07T23:41:59.353Z,99.90
2023-05-07T23:44:27.078Z,99.90
2023-05-07T23:46:54.871Z,99.90
2023-05-07T23:49:23.979Z,99.90
2023-05-07T23:51:51.737Z,99.90
2023-05-07T23:54:19.490Z,99.90
2023-05-07T23:56:47.245Z,99.90
2023-05-07T23:59:14.938Z,99.90
